Aeroporto :







RITROVATECI SU...

 
LOGIN :

Iscrizione | Disclaimer

   EN    FR    IT 

 









Sommario :    VFR   VFR Marginale   IFR   IFR Intensivo   IFR Molto Intensivo
Visibilità : 
Base nubi : 
>= 8 km
>= 3000ft
5 / 8 km
1000 / 3000 ft
1500m / 5 km
500 / 1000 ft
800 / 1500m
200 / 500 ft
< 800m
< 200 ft
Simboli :   Temporali  Nebbia  Neve Forte  Precipitazioni Forti  Vento > 20 kt






- Altitudine del aeroporto : 40 ft
- Codice IATA : YRF


CYCA - Cartwright

ULTIMO METAR :
  • 040300Z AUTO 02008KT 8SM -RA OVC006 09/08 A2995 RMK SLP142

METARs OBSOLETI :
  • 040203Z AUTO 03009KT 8SM -RA BKN010 BKN018 OVC035 09/08 A2994 RMK SLP141
  • 040126Z AUTO 06005KT 010V080 6SM RA BR BKN008 OVC027 09/09 A2993 RMK SLP136
  • 040114Z AUTO 02007KT 5SM -RA BR OVC006 09/09 A2993 RMK SLP138
  • 040033Z AUTO 06005KT 020V090 6SM -RA BR BKN006 OVC027 09/09 A2991 RMK SLP130
  • 040026Z AUTO 03007KT 5SM -RA BR BKN006 OVC014 09/09 A2992 RMK SLP132

TAF TAF CYCA
Valido dal 04 a 02 ore il 04 a 14 ore UTC


040138Z 0402/0414 01008KT 2SM -RA BR BKN006 OVC020
TEMPO 0402/0412 P6SM NSW SCT006 OVC020
FM041200 35005KT P6SM BKN020 RMK FCST BASED ON AUTO OBS. NXT FCST BY 040800Z
FIR CZQX / America del Nord



MetMap, La meteo Aeronautica in un colpo d'occhio ! - Copyright ORBIFLY Dicembre 2007 - Disclaimer

ORBIFLY MET'MAP TEAM :

Programmazione e sviluppo : Alexandra Zaïnal
Concezione : Baudouin d'Aumeries
Aiuto per la programmazione : Marc-Olivier Méhu
Supporto tecnico e logistico : Manuel Goepfert
Aiuto per la traduzione : Arnaldo La Scala

Contatto : metmap@orbifly.com




FONTI E CREDITI :

   NOAA